METAR v bližini

 

LJMB - Maribor Edvarda Rusjana, Slovenia
Oddaljenost od postaje: SV 30,9km
Podatki zajeti: 19/04/2018 13:00
Jasno
Jasno
 Veter iz smeri SV
Veter: SV 9 km/h
Temperatura: 21°C
Rosišče: 4°C
Vlažnost: 33%
Tlak: 1029 hPa
Stanje: Jasno
Vidljivost: večja od 10 km
2018/04/19 11:00 LJMB 191100Z 05005KT 010V080 CAVOK 21/04 Q1029
LJLJ - Ljubljana Brnik, Slovenia
Oddaljenost od postaje: S 103km
Podatki zajeti: 19/04/2018 13:00
Jasno
Jasno
 Veter iz smeri spremenljiv
Veter: spremenljiv 6 km/h
Temperatura: 21°C
Rosišče: 8°C
Vlažnost: 43%
Tlak: 1029 hPa
Stanje: Jasno
Vidljivost: večja od 10 km
2018/04/19 11:00 LJLJ 191100Z VRB03KT CAVOK 21/08 Q1029 NOSIG
 
LJPZ - Portorož, Slovenia
Oddaljenost od postaje: SSZ 224km
Podatki zajeti: 19/04/2018 13:00
Jasno
Jasno
 Veter iz smeri S
Veter: S 17 km/h
Temperatura: 26°C
Rosišče: 6°C
Vlažnost: 28%
Tlak: 1026 hPa
Stanje: Jasno
Vidljivost: večja od 10 km
2018/04/19 11:00 LJPZ 191100Z 36009KT 320V030 CAVOK 26/06 Q1026
LJCE - Cerklje, Slovenia
Oddaljenost od postaje: VSV 83,9km
Podatki zajeti: 19/04/2018 13:00
Jasno
Jasno
 Veter iz smeri V
Veter: V 13 km/h
Temperatura: 22°C
Rosišče: 8°C
Vlažnost: 41%
Tlak: 1029 hPa
Stanje: Jasno
Vidljivost: večja od 10 km
2018/04/19 11:00 LJCE 191100Z 09007KT 060V120 CAVOK 22/08 Q1029 RMK BLU
 
LOWG - Graz, Austria
Oddaljenost od postaje: SSZ 99,6km
Podatki zajeti: 19/04/2018 13:20
Jasno
Jasno
 Veter iz smeri spremenljiv
Veter: spremenljiv 4 km/h
Temperatura: 22°C
Rosišče: 7°C
Vlažnost: 38%
Tlak: 1029 hPa
Stanje: Jasno
Vidljivost: večja od 10 km
2018/04/19 11:20 LOWG 191120Z VRB02KT CAVOK 22/07 Q1029 NOSIG
LOWK - Klagenfurt, Austria
Oddaljenost od postaje: SZ 121km
Podatki zajeti: 19/04/2018 13:20
Jasno
Jasno
 Veter iz smeri spremenljiv
Veter: spremenljiv 6 km/h
Temperatura: 21°C
Rosišče: 4°C
Vlažnost: 33%
Tlak: 1030 hPa
Stanje: Jasno
Vidljivost: večja od 10 km
2018/04/19 11:20 LOWK 191120Z VRB03KT CAVOK 21/04 Q1030 NOSIG
 
LDRI - Rijeka, Croatia
Oddaljenost od postaje: SZ 243km
Podatki zajeti: 19/04/2018 13:00
Jasno
Jasno
 Veter iz smeri VJV
Veter: VJV 15 km/h
Temperatura: 25°C
Rosišče: 6°C
Vlažnost: 30%
Tlak: 1027 hPa
Stanje: Jasno
Vidljivost: večja od 10 km
2018/04/19 11:00 LDRI 191100Z 12008KT 090V190 CAVOK 25/06 Q1027
LIPQ - Ronchi, Italy
Oddaljenost od postaje: VJV 224km
Podatki zajeti: 19/04/2018 13:20
Jasno
Jasno
 Veter iz smeri VJV
Veter: VJV 20 km/h
Temperatura: 26°C
Rosišče: 5°C
Vlažnost: 26%
Tlak: 1027 hPa
Stanje: Jasno
Vidljivost: večja od 10 km
2018/04/19 11:20 LIPQ 191120Z 11011KT CAVOK 26/05 Q1027
 
LDZA - Zagreb, Croatia
Oddaljenost od postaje: JJV 143km
Podatki zajeti: 19/04/2018 13:00
Jasno
Jasno
 Veter iz smeri SV
Veter: SV 13 km/h
Temperatura: 22°C
Rosišče: 7°C
Vlažnost: 38%
Tlak: 1028 hPa
Stanje: Jasno
Vidljivost: večja od 10 km
2018/04/19 11:00 LDZA 191100Z 05007KT 330V140 CAVOK 22/07 Q1028 NOSIG
LIVT - Trieste, Italy
Oddaljenost od postaje: ZSZ 250km
Podatki zajeti: 19/04/2018 12:55
Jasno
Jasno
 Veter iz smeri VSV
Veter: VSV 9 km/h, Sunek vetra: 30 km/h
Temperatura: 26°C
Rosišče: 7°C
Vlažnost: 30%
Tlak: 1027 hPa
Stanje: Jasno
Vidljivost: večja od 10 km
2018/04/19 10:55 LIVT 191055Z 06005G16KT CAVOK 26/07 Q1027 RMK SKC QUK 2 QUL 0 VIS MAR 22 KM VIS MIN 9999
 
LIPA - Aviano, Italy
Oddaljenost od postaje: S 310km
Podatki zajeti: 19/04/2018 12:55
Jasno
Jasno
 Veter iz smeri JZ
Veter: JZ 11 km/h
Temperatura: 24°C
Rosišče: 10°C
Vlažnost: 41%
Tlak: 1027 hPa
Stanje: Jasno
Vidljivost: večja od 10 km
2018/04/19 10:55 LIPA 191055Z 22006KT CAVOK 24/10 Q1027 RMK SKC VIS MIN 9999 WIND THR05 /////KT WIND THR23 /////KT A3035 BLU
LDPL - Pula, Croatia
Oddaljenost od postaje: SSV 304km
Podatki zajeti: 19/04/2018 13:00
Jasno
Jasno
 Veter iz smeri V
Veter: V 26 km/h
Temperatura: 23°C
Rosišče: 9°C
Vlažnost: 41%
Tlak: 1027 hPa
Stanje: Jasno
Vidljivost: večja od 10 km
2018/04/19 11:00 LDPL 191100Z 08014KT CAVOK 23/09 Q1027 BECMG 09005KT